sensor_id;sensor_type;location;lat;lon;timestamp;temperature;humidity
4431;DHT22;2228;48.140;11.488;2023-07-08T10:23:13;30.80;99.90
4431;DHT22;2228;48.140;11.488;2023-07-08T10:25:45;30.30;99.90
4431;DHT22;2228;48.140;11.488;2023-07-08T10:28:27;30.30;99.90
4431;DHT22;2228;48.140;11.488;2023-07-08T10:31:06;30.50;99.90
4431;DHT22;2228;48.140;11.488;2023-07-08T10:33:47;30.40;99.90
4431;DHT22;2228;48.140;11.488;2023-07-08T10:36:23;30.50;99.90
4431;DHT22;2228;48.140;11.488;2023-07-08T10:39:05;30.50;99.90
4431;DHT22;2228;48.140;11.488;2023-07-08T10:41:52;30.10;99.90
4431;DHT22;2228;48.140;11.488;2023-07-08T10:44:28;29.90;99.90
4431;DHT22;2228;48.140;11.488;2023-07-08T10:47:06;30.20;99.90
4431;DHT22;2228;48.140;11.488;2023-07-08T10:49:44;30.10;99.90
4431;DHT22;2228;48.140;11.488;2023-07-08T10:52:25;31.10;99.90
4431;DHT22;2228;48.140;11.488;2023-07-08T10:55:13;31.40;99.90
4431;DHT22;2228;48.140;11.488;2023-07-08T10:58:15;32.00;99.90
4431;DHT22;2228;48.140;11.488;2023-07-08T11:00:49;32.00;99.90
4431;DHT22;2228;48.140;11.488;2023-07-08T11:03:39;32.00;99.90
4431;DHT22;2228;48.140;11.488;2023-07-08T11:06:14;32.50;99.90
4431;DHT22;2228;48.140;11.488;2023-07-08T11:08:45;33.10;99.90
4431;DHT22;2228;48.140;11.488;2023-07-08T11:11:26;33.50;99.90
4431;DHT22;2228;48.140;11.488;2023-07-08T11:13:59;34.00;99.90
4431;DHT22;2228;48.140;11.488;2023-07-08T11:16:31;34.40;99.90
4431;DHT22;2228;48.140;11.488;2023-07-08T11:19:05;34.10;99.90
4431;DHT22;2228;48.140;11.488;2023-07-08T11:21:37;33.00;99.90
4431;DHT22;2228;48.140;11.488;2023-07-08T11:24:12;32.50;99.90
4431;DHT22;2228;48.140;11.488;2023-07-08T11:26:46;32.20;99.90
4431;DHT22;2228;48.140;11.488;2023-07-08T11:29:19;32.10;99.90
4431;DHT22;2228;48.140;11.488;2023-07-08T11:31:47;32.70;99.90
4431;DHT22;2228;48.140;11.488;2023-07-08T11:34:17;33.20;99.90
4431;DHT22;2228;48.140;11.488;2023-07-08T11:36:46;33.10;99.90
4431;DHT22;2228;48.140;11.488;2023-07-08T11:39:27;33.40;99.90
4431;DHT22;2228;48.140;11.488;2023-07-08T11:42:10;34.00;99.90
4431;DHT22;2228;48.140;11.488;2023-07-08T11:44:42;34.70;99.90
4431;DHT22;2228;48.140;11.488;2023-07-08T11:47:16;35.80;99.90
4431;DHT22;2228;48.140;11.488;2023-07-08T11:49:47;36.40;99.90
4431;DHT22;2228;48.140;11.488;2023-07-08T11:52:18;35.70;99.90
4431;DHT22;2228;48.140;11.488;2023-07-08T11:54:47;35.60;99.90
4431;DHT22;2228;48.140;11.488;2023-07-08T11:57:25;35.30;99.90
4431;DHT22;2228;48.140;11.488;2023-07-08T12:00:16;35.20;99.90
4431;DHT22;2228;48.140;11.488;2023-07-08T12:02:53;36.30;99.90
4431;DHT22;2228;48.140;11.488;2023-07-08T12:05:32;35.70;99.90
4431;DHT22;2228;48.140;11.488;2023-07-08T12:08:00;35.50;99.90
4431;DHT22;2228;48.140;11.488;2023-07-08T12:10:33;35.20;99.90
4431;DHT22;2228;48.140;11.488;2023-07-08T12:13:02;34.40;99.90
4431;DHT22;2228;48.140;11.488;2023-07-08T12:15:31;34.30;99.90
4431;DHT22;2228;48.140;11.488;2023-07-08T12:18:00;34.20;99.90
4431;DHT22;2228;48.140;11.488;2023-07-08T12:20:30;33.90;99.90
4431;DHT22;2228;48.140;11.488;2023-07-08T12:22:58;34.20;99.90
4431;DHT22;2228;48.140;11.488;2023-07-08T12:25:30;34.70;99.90
4431;DHT22;2228;48.140;11.488;2023-07-08T12:27:58;35.20;99.90
4431;DHT22;2228;48.140;11.488;2023-07-08T12:30:28;36.50;99.90
4431;DHT22;2228;48.140;11.488;2023-07-08T12:32:56;38.10;99.90
4431;DHT22;2228;48.140;11.488;2023-07-08T12:35:26;38.40;99.90
4431;DHT22;2228;48.140;11.488;2023-07-08T12:37:59;38.30;99.90
4431;DHT22;2228;48.140;11.488;2023-07-08T12:40:27;37.80;99.90
4431;DHT22;2228;48.140;11.488;2023-07-08T12:42:55;38.80;99.90
4431;DHT22;2228;48.140;11.488;2023-07-08T12:45:28;39.50;99.90
4431;DHT22;2228;48.140;11.488;2023-07-08T12:47:56;40.40;99.90
4431;DHT22;2228;48.140;11.488;2023-07-08T12:50:27;40.70;99.90
4431;DHT22;2228;48.140;11.488;2023-07-08T12:52:54;41.60;99.90
4431;DHT22;2228;48.140;11.488;2023-07-08T12:55:22;40.20;99.90
4431;DHT22;2228;48.140;11.488;2023-07-08T12:57:51;39.20;99.90
4431;DHT22;2228;48.140;11.488;2023-07-08T13:00:23;38.00;99.90
4431;DHT22;2228;48.140;11.488;2023-07-08T13:02:57;36.50;99.90
4431;DHT22;2228;48.140;11.488;2023-07-08T13:05:26;36.00;99.90
4431;DHT22;2228;48.140;11.488;2023-07-08T13:07:53;35.10;99.90
4431;DHT22;2228;48.140;11.488;2023-07-08T13:10:24;34.90;99.90
4431;DHT22;2228;48.140;11.488;2023-07-08T13:12:55;35.50;99.90
4431;DHT22;2228;48.140;11.488;2023-07-08T13:15:27;36.40;99.90
4431;DHT22;2228;48.140;11.488;2023-07-08T13:17:56;37.40;99.90
4431;DHT22;2228;48.140;11.488;2023-07-08T13:20:24;37.90;99.90
4431;DHT22;2228;48.140;11.488;2023-07-08T13:22:54;37.50;99.90
4431;DHT22;2228;48.140;11.488;2023-07-08T13:25:27;37.60;99.90
4431;DHT22;2228;48.140;11.488;2023-07-08T13:27:56;37.50;99.90
4431;DHT22;2228;48.140;11.488;2023-07-08T13:30:26;36.50;99.90
4431;DHT22;2228;48.140;11.488;2023-07-08T13:32:53;36.50;99.90
4431;DHT22;2228;48.140;11.488;2023-07-08T13:35:27;36.30;99.90
4431;DHT22;2228;48.140;11.488;2023-07-08T13:37:56;37.00;99.90
4431;DHT22;2228;48.140;11.488;2023-07-08T13:40:26;38.40;99.90
4431;DHT22;2228;48.140;11.488;2023-07-08T13:42:54;39.30;99.90
4431;DHT22;2228;48.140;11.488;2023-07-08T13:45:24;39.90;99.90
4431;DHT22;2228;48.140;11.488;2023-07-08T13:47:59;39.30;99.90
4431;DHT22;2228;48.140;11.488;2023-07-08T13:50:42;38.50;99.90
4431;DHT22;2228;48.140;11.488;2023-07-08T13:53:20;38.70;99.90
4431;DHT22;2228;48.140;11.488;2023-07-08T13:55:48;38.60;99.90
4431;DHT22;2228;48.140;11.488;2023-07-08T13:58:16;38.00;99.90
4431;DHT22;2228;48.140;11.488;2023-07-08T14:00:44;37.30;99.90
4431;DHT22;2228;48.140;11.488;2023-07-08T14:03:20;36.20;99.90
4431;DHT22;2228;48.140;11.488;2023-07-08T14:05:49;37.10;99.90
4431;DHT22;2228;48.140;11.488;2023-07-08T14:08:17;38.20;99.90
4431;DHT22;2228;48.140;11.488;2023-07-08T14:10:44;37.90;99.90
4431;DHT22;2228;48.140;11.488;2023-07-08T14:13:11;38.20;99.90
4431;DHT22;2228;48.140;11.488;2023-07-08T14:15:39;37.90;99.90
4431;DHT22;2228;48.140;11.488;2023-07-08T14:18:06;37.40;99.90
4431;DHT22;2228;48.140;11.488;2023-07-08T14:20:34;37.00;99.90
4431;DHT22;2228;48.140;11.488;2023-07-08T14:23:03;36.40;99.90
4431;DHT22;2228;48.140;11.488;2023-07-08T14:25:29;36.20;99.90
4431;DHT22;2228;48.140;11.488;2023-07-08T14:27:56;35.30;99.90
4431;DHT22;2228;48.140;11.488;2023-07-08T14:30:23;34.80;99.90
4431;DHT22;2228;48.140;11.488;2023-07-08T14:32:50;34.90;99.90
4431;DHT22;2228;48.140;11.488;2023-07-08T14:35:20;35.90;99.90
4431;DHT22;2228;48.140;11.488;2023-07-08T14:37:49;36.80;99.90
4431;DHT22;2228;48.140;11.488;2023-07-08T14:40:25;37.70;99.90
4431;DHT22;2228;48.140;11.488;2023-07-08T14:42:59;38.70;99.90
4431;DHT22;2228;48.140;11.488;2023-07-08T14:45:29;38.40;99.90
4431;DHT22;2228;48.140;11.488;2023-07-08T14:47:57;37.10;99.90
4431;DHT22;2228;48.140;11.488;2023-07-08T14:50:24;35.50;99.90
4431;DHT22;2228;48.140;11.488;2023-07-08T14:52:55;34.60;99.90
4431;DHT22;2228;48.140;11.488;2023-07-08T14:55:23;35.10;99.90
4431;DHT22;2228;48.140;11.488;2023-07-08T14:57:50;34.60;99.90
4431;DHT22;2228;48.140;11.488;2023-07-08T15:00:18;34.50;99.90
4431;DHT22;2228;48.140;11.488;2023-07-08T15:02:47;34.50;99.90
4431;DHT22;2228;48.140;11.488;2023-07-08T15:05:17;34.80;99.90
4431;DHT22;2228;48.140;11.488;2023-07-08T15:07:44;35.70;99.90
4431;DHT22;2228;48.140;11.488;2023-07-08T15:10:11;36.30;99.90
4431;DHT22;2228;48.140;11.488;2023-07-08T15:12:39;36.70;99.90
4431;DHT22;2228;48.140;11.488;2023-07-08T15:15:14;36.60;99.90
4431;DHT22;2228;48.140;11.488;2023-07-08T15:17:41;36.40;99.90
4431;DHT22;2228;48.140;11.488;2023-07-08T15:20:11;36.00;99.90
4431;DHT22;2228;48.140;11.488;2023-07-08T15:22:41;35.60;99.90
4431;DHT22;2228;48.140;11.488;2023-07-08T15:25:10;35.60;99.90
4431;DHT22;2228;48.140;11.488;2023-07-08T15:27:38;36.30;99.90
4431;DHT22;2228;48.140;11.488;2023-07-08T15:30:15;37.60;99.90
4431;DHT22;2228;48.140;11.488;2023-07-08T15:32:42;38.00;99.90
4431;DHT22;2228;48.140;11.488;2023-07-08T15:35:12;39.30;99.90
4431;DHT22;2228;48.140;11.488;2023-07-08T15:37:41;40.50;99.90
4431;DHT22;2228;48.140;11.488;2023-07-08T15:40:09;42.10;99.90
4431;DHT22;2228;48.140;11.488;2023-07-08T15:42:36;42.70;99.90
4431;DHT22;2228;48.140;11.488;2023-07-08T15:45:13;43.00;99.90
4431;DHT22;2228;48.140;11.488;2023-07-08T15:47:41;43.50;99.90
4431;DHT22;2228;48.140;11.488;2023-07-08T15:50:12;43.50;99.90
4431;DHT22;2228;48.140;11.488;2023-07-08T15:52:40;43.10;99.90
4431;DHT22;2228;48.140;11.488;2023-07-08T15:55:08;43.30;99.90
4431;DHT22;2228;48.140;11.488;2023-07-08T15:57:39;43.40;99.90
4431;DHT22;2228;48.140;11.488;2023-07-08T16:00:15;42.20;99.90
4431;DHT22;2228;48.140;11.488;2023-07-08T16:02:48;41.50;99.90
4431;DHT22;2228;48.140;11.488;2023-07-08T16:05:16;41.70;99.90
4431;DHT22;2228;48.140;11.488;2023-07-08T16:07:44;42.40;99.90
4431;DHT22;2228;48.140;11.488;2023-07-08T16:10:11;42.00;99.90
4431;DHT22;2228;48.140;11.488;2023-07-08T16:12:38;42.10;99.90
4431;DHT22;2228;48.140;11.488;2023-07-08T16:15:13;42.80;99.90
4431;DHT22;2228;48.140;11.488;2023-07-08T16:17:41;43.10;99.90
4431;DHT22;2228;48.140;11.488;2023-07-08T16:20:19;42.90;99.90
4431;DHT22;2228;48.140;11.488;2023-07-08T16:22:49;43.10;99.90
4431;DHT22;2228;48.140;11.488;2023-07-08T16:25:18;43.70;99.90
4431;DHT22;2228;48.140;11.488;2023-07-08T16:27:47;44.10;99.90
4431;DHT22;2228;48.140;11.488;2023-07-08T16:30:19;44.60;99.90
4431;DHT22;2228;48.140;11.488;2023-07-08T16:32:47;45.10;99.90
4431;DHT22;2228;48.140;11.488;2023-07-08T16:35:16;45.70;99.90
4431;DHT22;2228;48.140;11.488;2023-07-08T16:37:48;44.40;99.90
4431;DHT22;2228;48.140;11.488;2023-07-08T16:40:17;42.80;99.90
4431;DHT22;2228;48.140;11.488;2023-07-08T16:42:46;41.60;99.90
4431;DHT22;2228;48.140;11.488;2023-07-08T16:45:15;40.30;99.90
4431;DHT22;2228;48.140;11.488;2023-07-08T16:47:45;39.60;99.90
4431;DHT22;2228;48.140;11.488;2023-07-08T16:50:14;39.30;99.90
4431;DHT22;2228;48.140;11.488;2023-07-08T16:52:41;39.40;99.90
4431;DHT22;2228;48.140;11.488;2023-07-08T16:55:10;39.10;99.90
4431;DHT22;2228;48.140;11.488;2023-07-08T16:57:38;39.20;99.90
4431;DHT22;2228;48.140;11.488;2023-07-08T17:00:07;39.60;99.90
4431;DHT22;2228;48.140;11.488;2023-07-08T17:02:35;39.90;99.90
4431;DHT22;2228;48.140;11.488;2023-07-08T17:05:16;40.10;99.90
4431;DHT22;2228;48.140;11.488;2023-07-08T17:07:43;40.00;99.90
4431;DHT22;2228;48.140;11.488;2023-07-08T17:10:10;39.40;99.90
4431;DHT22;2228;48.140;11.488;2023-07-08T17:12:37;40.20;99.90
4431;DHT22;2228;48.140;11.488;2023-07-08T17:15:05;40.20;99.90
4431;DHT22;2228;48.140;11.488;2023-07-08T17:17:32;40.30;99.90
4431;DHT22;2228;48.140;11.488;2023-07-08T17:20:16;40.50;99.90
4431;DHT22;2228;48.140;11.488;2023-07-08T17:22:44;39.90;99.90
4431;DHT22;2228;48.140;11.488;2023-07-08T17:25:15;39.80;99.90
4431;DHT22;2228;48.140;11.488;2023-07-08T17:27:42;39.00;99.90
4431;DHT22;2228;48.140;11.488;2023-07-08T17:30:12;38.60;99.90
4431;DHT22;2228;48.140;11.488;2023-07-08T17:32:40;38.10;99.90
4431;DHT22;2228;48.140;11.488;2023-07-08T17:35:10;37.90;99.90
4431;DHT22;2228;48.140;11.488;2023-07-08T17:37:40;38.30;99.90
4431;DHT22;2228;48.140;11.488;2023-07-08T17:40:18;38.50;99.90
4431;DHT22;2228;48.140;11.488;2023-07-08T17:42:45;38.20;99.90
4431;DHT22;2228;48.140;11.488;2023-07-08T17:45:16;38.00;99.90
4431;DHT22;2228;48.140;11.488;2023-07-08T17:47:43;37.60;99.90
4431;DHT22;2228;48.140;11.488;2023-07-08T17:50:15;37.20;99.90
4431;DHT22;2228;48.140;11.488;2023-07-08T17:52:46;37.40;99.90
4431;DHT22;2228;48.140;11.488;2023-07-08T17:55:14;37.30;99.90
4431;DHT22;2228;48.140;11.488;2023-07-08T17:57:41;36.60;99.90
4431;DHT22;2228;48.140;11.488;2023-07-08T18:00:14;35.30;99.90
4431;DHT22;2228;48.140;11.488;2023-07-08T18:02:41;34.00;99.90
4431;DHT22;2228;48.140;11.488;2023-07-08T18:05:13;33.20;99.90
4431;DHT22;2228;48.140;11.488;2023-07-08T18:07:41;32.70;99.90
4431;DHT22;2228;48.140;11.488;2023-07-08T18:10:10;33.10;99.90
4431;DHT22;2228;48.140;11.488;2023-07-08T18:12:37;34.10;99.90
4431;DHT22;2228;48.140;11.488;2023-07-08T18:15:15;34.70;99.90
4431;DHT22;2228;48.140;11.488;2023-07-08T18:17:42;35.10;99.90
4431;DHT22;2228;48.140;11.488;2023-07-08T18:20:10;34.80;99.90
4431;DHT22;2228;48.140;11.488;2023-07-08T18:22:39;34.10;99.90
4431;DHT22;2228;48.140;11.488;2023-07-08T18:25:14;33.40;99.90
4431;DHT22;2228;48.140;11.488;2023-07-08T18:27:41;32.50;99.90
4431;DHT22;2228;48.140;11.488;2023-07-08T18:30:10;31.80;99.90
4431;DHT22;2228;48.140;11.488;2023-07-08T18:32:37;31.20;99.90
4431;DHT22;2228;48.140;11.488;2023-07-08T18:35:14;30.80;99.90
4431;DHT22;2228;48.140;11.488;2023-07-08T18:37:41;30.30;99.90
4431;DHT22;2228;48.140;11.488;2023-07-08T18:40:13;30.00;99.90
4431;DHT22;2228;48.140;11.488;2023-07-08T18:42:40;29.70;99.90
4431;DHT22;2228;48.140;11.488;2023-07-08T18:45:16;29.40;99.90
4431;DHT22;2228;48.140;11.488;2023-07-08T18:47:43;29.00;99.90
4431;DHT22;2228;48.140;11.488;2023-07-08T18:50:11;28.60;99.90
4431;DHT22;2228;48.140;11.488;2023-07-08T18:52:38;28.30;99.90
4431;DHT22;2228;48.140;11.488;2023-07-08T18:55:07;28.10;99.90
4431;DHT22;2228;48.140;11.488;2023-07-08T18:57:39;27.90;99.90
4431;DHT22;2228;48.140;11.488;2023-07-08T19:00:09;27.60;99.90
4431;DHT22;2228;48.140;11.488;2023-07-08T19:02:48;27.30;99.90
4431;DHT22;2228;48.140;11.488;2023-07-08T19:05:17;27.10;99.90
4431;DHT22;2228;48.140;11.488;2023-07-08T19:07:44;26.90;99.90
4431;DHT22;2228;48.140;11.488;2023-07-08T19:10:12;26.60;99.90
4431;DHT22;2228;48.140;11.488;2023-07-08T19:12:43;26.60;99.90
4431;DHT22;2228;48.140;11.488;2023-07-08T19:15:21;26.20;99.90
4431;DHT22;2228;48.140;11.488;2023-07-08T19:17:50;26.10;99.90
4431;DHT22;2228;48.140;11.488;2023-07-08T19:20:17;26.00;99.90
4431;DHT22;2228;48.140;11.488;2023-07-08T19:22:46;25.80;99.90
4431;DHT22;2228;48.140;11.488;2023-07-08T19:25:18;25.70;99.90
4431;DHT22;2228;48.140;11.488;2023-07-08T19:27:47;25.50;99.90
4431;DHT22;2228;48.140;11.488;2023-07-08T19:30:14;25.50;99.90
4431;DHT22;2228;48.140;11.488;2023-07-08T19:32:45;25.30;99.90
4431;DHT22;2228;48.140;11.488;2023-07-08T19:35:15;25.10;99.90
4431;DHT22;2228;48.140;11.488;2023-07-08T19:37:43;24.90;99.90
4431;DHT22;2228;48.140;11.488;2023-07-08T19:40:11;24.70;99.90
4431;DHT22;2228;48.140;11.488;2023-07-08T19:42:39;24.70;99.90
4431;DHT22;2228;48.140;11.488;2023-07-08T19:45:18;25.10;99.90
4431;DHT22;2228;48.140;11.488;2023-07-08T19:47:45;24.40;99.90
4431;DHT22;2228;48.140;11.488;2023-07-08T19:50:13;24.30;99.90
4431;DHT22;2228;48.140;11.488;2023-07-08T19:52:40;24.30;99.90
4431;DHT22;2228;48.140;11.488;2023-07-08T19:55:08;24.20;99.90
4431;DHT22;2228;48.140;11.488;2023-07-08T19:57:40;24.00;99.90
4431;DHT22;2228;48.140;11.488;2023-07-08T20:00:18;23.90;99.90
4431;DHT22;2228;48.140;11.488;2023-07-08T20:02:47;23.80;99.90
4431;DHT22;2228;48.140;11.488;2023-07-08T20:05:14;23.70;99.90
4431;DHT22;2228;48.140;11.488;2023-07-08T20:07:41;23.50;99.90
4431;DHT22;2228;48.140;11.488;2023-07-08T20:10:11;23.40;99.90
4431;DHT22;2228;48.140;11.488;2023-07-08T20:12:38;23.40;99.90
4431;DHT22;2228;48.140;11.488;2023-07-08T20:15:06;23.40;99.90
4431;DHT22;2228;48.140;11.488;2023-07-08T20:17:35;23.10;99.90
4431;DHT22;2228;48.140;11.488;2023-07-08T20:20:02;23.10;99.90
4431;DHT22;2228;48.140;11.488;2023-07-08T20:22:30;23.00;99.90
4431;DHT22;2228;48.140;11.488;2023-07-08T20:24:57;23.00;99.90
4431;DHT22;2228;48.140;11.488;2023-07-08T20:27:24;22.80;99.90
4431;DHT22;2228;48.140;11.488;2023-07-08T20:29:53;22.80;99.90
4431;DHT22;2228;48.140;11.488;2023-07-08T20:32:20;22.80;99.90
4431;DHT22;2228;48.140;11.488;2023-07-08T20:34:48;22.80;99.90
4431;DHT22;2228;48.140;11.488;2023-07-08T20:37:23;22.80;99.90
4431;DHT22;2228;48.140;11.488;2023-07-08T20:39:50;22.70;99.90
4431;DHT22;2228;48.140;11.488;2023-07-08T20:42:17;22.70;99.90
4431;DHT22;2228;48.140;11.488;2023-07-08T20:44:44;22.50;99.90
4431;DHT22;2228;48.140;11.488;2023-07-08T20:47:14;22.40;99.90
4431;DHT22;2228;48.140;11.488;2023-07-08T20:49:41;22.30;99.90
4431;DHT22;2228;48.140;11.488;2023-07-08T20:52:10;22.30;99.90
4431;DHT22;2228;48.140;11.488;2023-07-08T20:54:38;22.30;99.90
4431;DHT22;2228;48.140;11.488;2023-07-08T20:57:10;22.20;99.90
4431;DHT22;2228;48.140;11.488;2023-07-08T20:59:37;22.00;99.90
4431;DHT22;2228;48.140;11.488;2023-07-08T21:02:13;22.00;99.90
4431;DHT22;2228;48.140;11.488;2023-07-08T21:04:45;21.90;99.90
4431;DHT22;2228;48.140;11.488;2023-07-08T21:07:14;21.80;99.90
4431;DHT22;2228;48.140;11.488;2023-07-08T21:09:40;21.70;99.90
4431;DHT22;2228;48.140;11.488;2023-07-08T21:12:09;21.70;99.90
4431;DHT22;2228;48.140;11.488;2023-07-08T21:14:37;21.80;99.90
4431;DHT22;2228;48.140;11.488;2023-07-08T21:17:04;21.80;99.90
4431;DHT22;2228;48.140;11.488;2023-07-08T21:19:32;21.80;99.90
4431;DHT22;2228;48.140;11.488;2023-07-08T21:21:58;21.70;99.90
4431;DHT22;2228;48.140;11.488;2023-07-08T21:24:29;21.60;99.90
4431;DHT22;2228;48.140;11.488;2023-07-08T21:26:56;21.40;99.90
4431;DHT22;2228;48.140;11.488;2023-07-08T21:29:23;21.40;99.90
4431;DHT22;2228;48.140;11.488;2023-07-08T21:31:50;21.40;99.90
4431;DHT22;2228;48.140;11.488;2023-07-08T21:34:17;21.40;99.90
4431;DHT22;2228;48.140;11.488;2023-07-08T21:36:44;21.40;99.90
4431;DHT22;2228;48.140;11.488;2023-07-08T21:39:18;21.20;99.90
4431;DHT22;2228;48.140;11.488;2023-07-08T21:41:48;21.10;99.90
4431;DHT22;2228;48.140;11.488;2023-07-08T21:44:15;21.80;99.90
4431;DHT22;2228;48.140;11.488;2023-07-08T21:46:42;21.00;99.90
4431;DHT22;2228;48.140;11.488;2023-07-08T21:49:09;21.00;99.90
4431;DHT22;2228;48.140;11.488;2023-07-08T21:51:36;21.00;99.90
4431;DHT22;2228;48.140;11.488;2023-07-08T21:54:04;21.40;99.90
4431;DHT22;2228;48.140;11.488;2023-07-08T21:56:32;20.80;99.90
4431;DHT22;2228;48.140;11.488;2023-07-08T21:59:00;20.70;99.90
4431;DHT22;2228;48.140;11.488;2023-07-08T22:01:30;20.80;99.90
4431;DHT22;2228;48.140;11.488;2023-07-08T22:03:58;20.80;99.90
4431;DHT22;2228;48.140;11.488;2023-07-08T22:06:27;22.10;99.90
4431;DHT22;2228;48.140;11.488;2023-07-08T22:08:54;20.70;99.90
4431;DHT22;2228;48.140;11.488;2023-07-08T22:11:26;21.50;99.90
4431;DHT22;2228;48.140;11.488;2023-07-08T22:13:53;20.50;99.90
4431;DHT22;2228;48.140;11.488;2023-07-08T22:16:23;20.40;99.90
4431;DHT22;2228;48.140;11.488;2023-07-08T22:18:50;20.40;99.90
4431;DHT22;2228;48.140;11.488;2023-07-08T22:21:20;20.50;99.90
4431;DHT22;2228;48.140;11.488;2023-07-08T22:23:54;21.40;99.90
4431;DHT22;2228;48.140;11.488;2023-07-08T22:26:22;20.50;99.90
4431;DHT22;2228;48.140;11.488;2023-07-08T22:28:49;22.50;99.90
4431;DHT22;2228;48.140;11.488;2023-07-08T22:31:33;20.60;99.90
4431;DHT22;2228;48.140;11.488;2023-07-08T22:34:01;20.50;99.90
4431;DHT22;2228;48.140;11.488;2023-07-08T22:36:28;20.40;99.90
4431;DHT22;2228;48.140;11.488;2023-07-08T22:38:59;20.40;99.90
4431;DHT22;2228;48.140;11.488;2023-07-08T22:41:27;20.30;99.90
4431;DHT22;2228;48.140;11.488;2023-07-08T22:43:54;20.40;99.90
4431;DHT22;2228;48.140;11.488;2023-07-08T22:46:21;20.50;99.90
4431;DHT22;2228;48.140;11.488;2023-07-08T22:48:50;20.40;99.90
4431;DHT22;2228;48.140;11.488;2023-07-08T22:51:24;20.30;99.90
4431;DHT22;2228;48.140;11.488;2023-07-08T22:53:52;20.20;99.90
4431;DHT22;2228;48.140;11.488;2023-07-08T22:56:20;21.60;1.00
4431;DHT22;2228;48.140;11.488;2023-07-08T22:58:46;20.10;1.00
4431;DHT22;2228;48.140;11.488;2023-07-08T23:01:13;20.20;1.00
4431;DHT22;2228;48.140;11.488;2023-07-08T23:03:40;20.20;1.00
4431;DHT22;2228;48.140;11.488;2023-07-08T23:06:54;20.10;1.00
4431;DHT22;2228;48.140;11.488;2023-07-08T23:09:21;20.20;1.00
4431;DHT22;2228;48.140;11.488;2023-07-08T23:11:50;20.10;1.00
4431;DHT22;2228;48.140;11.488;2023-07-08T23:14:17;20.10;1.00
4431;DHT22;2228;48.140;11.488;2023-07-08T23:16:44;19.90;1.00
4431;DHT22;2228;48.140;11.488;2023-07-08T23:19:11;19.90;1.00
4431;DHT22;2228;48.140;11.488;2023-07-08T23:21:38;19.90;1.00
4431;DHT22;2228;48.140;11.488;2023-07-08T23:24:06;19.70;1.00
4431;DHT22;2228;48.140;11.488;2023-07-08T23:26:36;19.60;1.00
4431;DHT22;2228;48.140;11.488;2023-07-08T23:29:05;19.60;1.00
4431;DHT22;2228;48.140;11.488;2023-07-08T23:31:33;19.50;1.00
4431;DHT22;2228;48.140;11.488;2023-07-08T23:34:00;19.60;1.00
4431;DHT22;2228;48.140;11.488;2023-07-08T23:36:32;19.50;1.00
4431;DHT22;2228;48.140;11.488;2023-07-08T23:39:00;19.50;1.00
4431;DHT22;2228;48.140;11.488;2023-07-08T23:41:30;19.40;1.00
4431;DHT22;2228;48.140;11.488;2023-07-08T23:43:57;19.80;1.00
4431;DHT22;2228;48.140;11.488;2023-07-08T23:46:26;19.50;1.00
4431;DHT22;2228;48.140;11.488;2023-07-08T23:48:54;19.20;1.00
4431;DHT22;2228;48.140;11.488;2023-07-08T23:51:22;19.30;1.00
4431;DHT22;2228;48.140;11.488;2023-07-08T23:53:50;19.30;1.00
4431;DHT22;2228;48.140;11.488;2023-07-08T23:56:19;19.30;1.00
4431;DHT22;2228;48.140;11.488;2023-07-08T23:58:51;19.20;1.00
